Time;durP1;ratioP1;P1;durP2;ratioP2;P2;SDS_P1;SDS_P2;PMS_P1;PMS_P2;Temp;Humidity;BMP_temperature;BMP_pressure;BME280_temperature;BME280_humidity;BME280_pressure;Samples;Min_cycle;Max_cycle;Signal;HPM_P1;HPM_P2
2024/02/01 00:01:31;;;;;;;1.38;1.20;;;18.60;45.80;;;;;;8359960;28;20033;-50
2024/02/01 00:05:31;;;;;;;0.90;0.90;;;18.60;45.80;;;;;;8359728;28;20037;-50
2024/02/01 00:09:32;;;;;;;1.40;1.00;;;18.60;45.80;;;;;;8359610;28;20044;-50
2024/02/01 00:13:33;;;;;;;1.00;1.00;;;18.60;45.80;;;;;;8359778;28;20029;-52
2024/02/01 00:17:34;;;;;;;1.00;0.90;;;18.60;45.80;;;;;;8359492;28;20029;-50
2024/02/01 00:21:35;;;;;;;;;;;18.60;45.80;;;;;;8360635;28;20036;-49
2024/02/01 00:25:35;;;;;;;0.90;0.90;;;18.60;45.80;;;;;;8359551;28;19909;-52
2024/02/01 00:29:36;;;;;;;1.90;0.82;;;18.60;45.90;;;;;;8365773;28;20434;-52
2024/02/01 00:33:37;;;;;;;0.80;0.80;;;18.60;45.80;;;;;;8366274;28;20511;-49
2024/02/01 00:37:37;;;;;;;1.15;1.05;;;18.60;45.90;;;;;;8365914;28;20041;-50
2024/02/01 00:41:38;;;;;;;1.15;0.98;;;18.60;45.90;;;;;;8366080;28;20036;-50
2024/02/01 00:45:39;;;;;;;1.02;0.93;;;18.50;45.90;;;;;;8365948;28;20056;-49
2024/02/01 00:49:40;;;;;;;1.10;1.00;;;18.50;45.80;;;;;;8364823;28;20037;-50
2024/02/01 00:53:41;;;;;;;1.00;0.90;;;18.60;45.90;;;;;;8365629;28;20482;-50
2024/02/01 00:57:42;;;;;;;1.00;0.82;;;18.50;45.80;;;;;;8365301;28;20037;-50
2024/02/01 01:01:43;;;;;;;1.02;0.93;;;18.60;45.90;;;;;;8365402;28;20054;-50
2024/02/01 01:05:44;;;;;;;1.52;1.10;;;18.50;45.80;;;;;;8365958;28;20025;-50
2024/02/01 01:09:45;;;;;;;0.80;0.80;;;18.50;45.80;;;;;;8365221;28;20057;-50
2024/02/01 01:13:45;;;;;;;1.02;0.93;;;18.50;45.80;;;;;;8364766;28;20037;-49
2024/02/01 01:17:46;;;;;;;0.90;0.90;;;18.50;45.80;;;;;;8364902;28;20041;-51
2024/02/01 01:21:47;;;;;;;1.55;1.13;;;18.50;45.80;;;;;;8364585;28;20067;-51
2024/02/01 01:25:47;;;;;;;0.97;0.97;;;18.50;45.80;;;;;;8364694;28;20033;-49
2024/02/01 01:29:48;;;;;;;2.35;0.98;;;18.50;45.80;;;;;;8364769;28;20745;-49
2024/02/01 01:33:49;;;;;;;0.90;0.85;;;18.50;45.80;;;;;;8364267;28;20037;-49
2024/02/01 01:37:49;;;;;;;1.05;0.85;;;18.50;45.90;;;;;;8363441;28;20130;-50
2024/02/01 01:41:50;;;;;;;0.80;0.80;;;18.50;45.80;;;;;;8364071;28;20033;-50
2024/02/01 01:46:04;;;;;;;1.58;1.00;;;18.50;45.80;;;;;;8364040;28;20025;-50
2024/02/01 01:50:06;;;;;;;1.15;1.05;;;18.50;45.80;;;;;;8363826;28;20059;-50
2024/02/01 01:54:09;;;;;;;1.20;1.00;;;18.50;45.80;;;;;;8363783;28;20082;-49
2024/02/01 01:58:10;;;;;;;0.80;0.80;;;18.50;45.80;;;;;;8363342;28;20080;-49
2024/02/01 02:02:12;;;;;;;0.90;0.70;;;18.50;45.80;;;;;;8363518;28;20060;-50
2024/02/01 02:06:12;;;;;;;;;;;18.50;45.80;;;;;;8363827;28;20167;-50
2024/02/01 02:10:14;;;;;;;1.27;1.00;;;18.50;45.80;;;;;;8363164;28;20412;-50
2024/02/01 02:14:16;;;;;;;1.33;1.20;;;18.50;45.80;;;;;;8363019;28;20029;-49
2024/02/01 02:18:16;;;;;;;0.77;0.77;;;18.50;45.80;;;;;;8363022;28;20415;-49
2024/02/01 02:22:18;;;;;;;0.80;0.80;;;18.40;45.80;;;;;;8362886;28;20060;-50
2024/02/01 02:26:18;;;;;;;1.23;1.00;;;18.40;45.80;;;;;;8362526;28;20029;-49
2024/02/01 02:30:19;;;;;;;0.98;0.98;;;18.40;45.80;;;;;;8362722;28;20104;-49
2024/02/01 02:34:20;;;;;;;0.90;0.85;;;18.50;45.80;;;;;;8362378;28;20037;-50
2024/02/01 02:38:23;;;;;;;1.17;1.08;;;18.50;45.80;;;;;;8362287;28;20028;-50
2024/02/01 02:42:23;;;;;;;0.70;0.70;;;18.40;45.80;;;;;;8362321;28;20029;-49
2024/02/01 02:46:25;;;;;;;0.80;0.80;;;18.50;45.80;;;;;;8362088;28;20108;-50
2024/02/01 02:50:26;;;;;;;0.90;0.90;;;18.50;45.90;;;;;;8360876;28;20033;-50
2024/02/01 02:54:27;;;;;;;0.80;0.80;;;18.50;45.90;;;;;;8362241;28;20037;-50
2024/02/01 02:58:27;;;;;;;0.80;0.80;;;18.50;45.90;;;;;;8361396;28;20299;-50
2024/02/01 03:02:28;;;;;;;0.70;0.70;;;18.50;45.80;;;;;;8361604;28;20040;-49
2024/02/01 03:06:30;;;;;;;1.10;1.00;;;18.50;45.80;;;;;;8361580;28;20025;-51
2024/02/01 03:10:34;;;;;;;0.55;0.55;;;18.50;45.80;;;;;;8360985;28;20595;-50
2024/02/01 03:14:39;;;;;;;1.05;0.95;;;18.50;45.80;;;;;;8361402;28;20083;-50
2024/02/01 03:18:39;;;;;;;0.80;0.80;;;18.40;45.80;;;;;;8361058;28;20681;-52
2024/02/01 03:22:40;;;;;;;0.73;0.73;;;18.40;45.80;;;;;;8361033;28;20446;-50
2024/02/01 03:26:41;;;;;;;1.25;1.10;;;18.40;45.80;;;;;;8343016;28;20479;-49
2024/02/01 03:30:46;;;;;;;0.77;0.73;;;18.40;45.80;;;;;;8360950;28;20029;-50
2024/02/01 03:34:47;;;;;;;1.15;1.05;;;18.40;45.80;;;;;;8359413;28;20506;-51
2024/02/01 03:38:47;;;;;;;1.00;0.90;;;18.40;45.90;;;;;;8360267;28;20403;-50
2024/02/01 03:42:48;;;;;;;0.95;0.80;;;18.40;45.80;;;;;;8360344;28;20497;-50
2024/02/01 03:46:51;;;;;;;0.85;0.80;;;18.40;45.80;;;;;;8360400;28;20033;-48
2024/02/01 03:50:52;;;;;;;1.15;0.82;;;18.40;45.80;;;;;;8360247;28;20494;-50
2024/02/01 03:54:54;;;;;;;1.20;1.10;;;18.40;45.80;;;;;;8360094;28;20402;-52
2024/02/01 03:58:54;;;;;;;1.00;1.00;;;18.40;45.90;;;;;;8358736;28;20041;-50
2024/02/01 04:02:56;;;;;;;0.88;0.88;;;18.40;45.80;;;;;;8359600;28;20090;-52
2024/02/01 04:06:57;;;;;;;1.17;0.85;;;18.40;45.80;;;;;;8359788;28;20112;-52
2024/02/01 04:10:58;;;;;;;0.80;0.70;;;18.40;45.80;;;;;;8359675;28;20108;-52
2024/02/01 04:15:02;;;;;;;0.95;0.88;;;18.40;45.80;;;;;;8359826;28;20505;-51
2024/02/01 04:19:03;;;;;;;0.93;0.93;;;18.40;45.80;;;;;;8359639;28;20064;-51
2024/02/01 04:23:03;;;;;;;2.17;1.10;;;18.40;45.80;;;;;;8359501;28;20040;-52
2024/02/01 04:27:04;;;;;;;1.13;0.87;;;18.40;45.80;;;;;;8359349;28;20385;-51
2024/02/01 04:31:05;;;;;;;0.88;0.75;;;18.40;46.30;;;;;;8359748;28;20287;-50
2024/02/01 04:35:06;;;;;;;0.70;0.70;;;18.40;45.80;;;;;;8359417;28;20033;-52
2024/02/01 04:39:08;;;;;;;;;;;18.40;45.80;;;;;;8359738;28;20059;-51
2024/02/01 04:43:08;;;;;;;;;;;18.40;45.80;;;;;;8359715;28;20293;-52
2024/02/01 04:47:10;;;;;;;0.80;0.80;;;18.40;45.80;;;;;;8359382;28;19966;-54
2024/02/01 04:51:11;;;;;;;0.95;0.80;;;18.40;45.80;;;;;;8359167;28;20414;-53
2024/02/01 04:55:12;;;;;;;0.80;0.80;;;18.40;45.80;;;;;;8359362;28;20047;-51
2024/02/01 04:59:12;;;;;;;;;;;18.40;45.80;;;;;;8359337;28;20303;-49
2024/02/01 05:03:15;;;;;;;1.07;0.87;;;18.40;45.80;;;;;;8359153;28;20011;-50
2024/02/01 05:07:16;;;;;;;0.85;0.70;;;18.40;45.80;;;;;;8358223;28;20040;-50
2024/02/01 05:36:06;;;;;;;0.77;0.70;;;18.60;45.60;;;;;;8364447;28;20029;-49
2024/02/01 05:40:16;;;;;;;0.98;0.90;;;18.60;45.50;;;;;;8364298;28;20467;-49
2024/02/01 05:44:17;;;;;;;0.85;0.85;;;18.60;45.40;;;;;;8364026;28;20067;-50
2024/02/01 05:48:18;;;;;;;0.88;0.80;;;18.60;45.30;;;;;;8364063;28;20025;-49
2024/02/01 05:52:19;;;;;;;1.00;0.80;;;18.60;45.30;;;;;;8362781;28;20576;-50
2024/02/01 05:56:20;;;;;;;1.20;0.90;;;18.60;45.30;;;;;;8363429;28;20441;-51
2024/02/01 06:00:21;;;;;;;1.20;0.90;;;18.70;45.40;;;;;;8363740;28;20041;-49
2024/02/01 06:04:22;;;;;;;0.68;0.60;;;18.60;45.30;;;;;;8363618;28;20544;-49
2024/02/01 06:08:23;;;;;;;1.05;0.98;;;18.70;45.30;;;;;;8362168;28;20468;-49
2024/02/01 06:12:24;;;;;;;0.95;0.90;;;18.70;45.30;;;;;;8363218;28;20037;-51
2024/02/01 06:16:25;;;;;;;1.15;1.00;;;18.70;45.20;;;;;;8363207;28;20041;-50
2024/02/01 06:20:26;;;;;;;1.08;0.90;;;18.70;45.20;;;;;;8362964;28;20061;-49
2024/02/01 06:24:27;;;;;;;1.10;1.00;;;18.70;45.20;;;;;;8362573;28;20110;-50
2024/02/01 06:28:27;;;;;;;0.80;0.80;;;18.70;45.20;;;;;;8362754;28;20482;-50
2024/02/01 06:32:28;;;;;;;0.82;0.82;;;18.70;45.10;;;;;;8362585;28;20040;-50
2024/02/01 06:36:35;;;;;;;0.98;0.85;;;18.70;45.10;;;;;;8362527;28;20037;-50
2024/02/01 06:40:48;;;;;;;1.02;0.90;;;18.70;45.20;;;;;;8362240;28;20251;-50
2024/02/01 06:44:57;;;;;;;0.75;0.73;;;18.70;45.20;;;;;;8362315;28;20029;-49
2024/02/01 06:49:17;;;;;;;0.60;0.60;;;18.70;45.20;;;;;;8362155;28;20126;-50
2024/02/01 06:53:23;;;;;;;0.70;0.70;;;18.70;45.30;;;;;;8361102;28;20551;-50
2024/02/01 06:57:24;;;;;;;0.90;0.75;;;18.60;45.30;;;;;;8362127;28;20029;-52
2024/02/01 07:01:25;;;;;;;0.90;0.90;;;18.60;45.30;;;;;;8361784;28;20057;-50
2024/02/01 07:05:35;;;;;;;0.85;0.85;;;18.60;45.40;;;;;;8361696;28;20429;-50
2024/02/01 07:09:37;;;;;;;1.30;0.98;;;18.60;45.40;;;;;;8361659;28;20130;-51
2024/02/01 07:13:47;;;;;;;0.88;0.88;;;18.60;45.40;;;;;;8361211;28;20496;-51
2024/02/01 07:17:48;;;;;;;0.70;0.70;;;18.60;45.30;;;;;;8361026;28;20033;-50
2024/02/01 07:22:12;;;;;;;1.08;0.80;;;18.70;45.30;;;;;;8361138;28;20033;-49
2024/02/01 07:26:35;;;;;;;0.70;0.70;;;18.70;45.30;;;;;;8360929;28;20594;-51
2024/02/01 08:00:53;;;;;;;0.80;0.70;;;18.80;45.10;;;;;;8359901;28;20125;-49
2024/02/01 08:09:14;;;;;;;0.65;0.65;;;18.70;45.10;;;;;;8359516;28;20635;-49
2024/02/01 08:13:15;;;;;;;0.70;0.70;;;18.70;45.10;;;;;;8359940;28;20398;-49
2024/02/01 08:17:16;;;;;;;0.52;0.52;;;18.70;45.10;;;;;;8359852;28;20033;-49
2024/02/01 08:21:19;;;;;;;0.80;0.80;;;18.70;45.10;;;;;;8359762;28;20029;-49
2024/02/01 08:25:19;;;;;;;1.02;0.70;;;18.80;45.10;;;;;;8360025;28;20025;-48
2024/02/01 08:29:27;;;;;;;0.70;0.70;;;18.80;45.10;;;;;;8359655;28;20040;-48
2024/02/01 08:33:28;;;;;;;0.70;0.70;;;18.80;45.20;;;;;;8359739;28;20080;-50
2024/02/01 08:37:28;;;;;;;0.90;0.85;;;18.70;45.10;;;;;;8359620;28;20033;-49
2024/02/01 08:41:35;;;;;;;0.75;0.75;;;18.70;45.10;;;;;;8359106;28;20075;-48
2024/02/01 08:45:40;;;;;;;0.55;0.52;;;18.70;45.10;;;;;;8359483;28;20117;-47
2024/02/01 08:49:41;;;;;;;0.77;0.77;;;18.80;45.10;;;;;;8364048;28;20409;-49
2024/02/01 08:53:43;;;;;;;0.75;0.73;;;18.70;45.10;;;;;;8366162;28;20088;-49
2024/02/01 08:57:44;;;;;;;0.70;0.63;;;18.70;45.20;;;;;;8365306;28;20114;-49
2024/02/01 09:01:45;;;;;;;0.60;0.60;;;18.70;45.20;;;;;;8365307;28;20037;-48
2024/02/01 09:05:50;;;;;;;0.95;0.85;;;18.70;45.20;;;;;;8365491;28;20090;-50
2024/02/01 09:09:51;;;;;;;0.70;0.70;;;18.70;45.20;;;;;;8365081;28;20713;-48
2024/02/01 09:13:52;;;;;;;0.85;0.80;;;18.70;45.10;;;;;;8365181;28;20087;-47
2024/02/01 09:17:56;;;;;;;0.70;0.70;;;18.80;45.10;;;;;;8364959;28;20037;-48
2024/02/01 09:21:57;;;;;;;0.60;0.50;;;18.80;45.10;;;;;;8364839;28;20545;-49
2024/02/01 09:25:58;;;;;;;0.65;0.60;;;18.80;45.10;;;;;;8346892;28;20395;-49
2024/02/01 09:30:00;;;;;;;1.67;0.80;;;18.80;45.10;;;;;;8364684;28;20465;-49
2024/02/01 09:34:01;;;;;;;1.10;0.70;;;18.80;45.10;;;;;;8364314;28;20055;-52
2024/02/01 09:38:02;;;;;;;0.65;0.60;;;18.80;45.10;;;;;;8364349;28;20147;-50
2024/02/01 09:42:11;;;;;;;0.88;0.88;;;18.70;45.00;;;;;;8364144;28;20033;-51
2024/02/01 09:46:12;;;;;;;0.82;0.80;;;18.80;45.10;;;;;;8363966;28;20032;-53
2024/02/01 09:50:20;;;;;;;0.60;0.60;;;18.70;45.10;;;;;;8364051;28;20033;-50
2024/02/01 09:54:21;;;;;;;0.70;0.70;;;18.70;45.10;;;;;;8363759;28;20398;-52
2024/02/01 09:58:21;;;;;;;0.70;0.70;;;18.80;45.20;;;;;;8363299;28;20029;-50
2024/02/01 10:02:23;;;;;;;0.65;0.65;;;18.70;45.10;;;;;;8362869;28;20390;-51
2024/02/01 10:06:24;;;;;;;;;;;18.70;45.10;;;;;;8363737;28;20410;-53
2024/02/01 10:10:25;;;;;;;0.50;0.50;;;18.70;45.10;;;;;;8362924;28;20290;-50
2024/02/01 10:14:35;;;;;;;0.82;0.82;;;18.70;45.10;;;;;;8363295;28;20036;-50
2024/02/01 10:18:35;;;;;;;0.57;0.57;;;18.70;45.10;;;;;;8362941;28;20040;-52
2024/02/01 10:22:36;;;;;;;0.70;0.70;;;18.70;45.10;;;;;;8362740;28;20040;-52
2024/02/01 10:26:37;;;;;;;0.73;0.70;;;18.80;45.10;;;;;;8362723;28;20029;-52
2024/02/01 10:30:43;;;;;;;0.88;0.80;;;18.70;45.00;;;;;;8362458;28;20032;-52
2024/02/01 10:34:49;;;;;;;0.70;0.70;;;18.70;45.10;;;;;;8361145;28;20033;-52
2024/02/01 10:38:58;;;;;;;0.63;0.63;;;18.70;45.10;;;;;;8362187;28;20526;-50
2024/02/01 10:43:00;;;;;;;0.60;0.60;;;18.70;45.10;;;;;;8362085;28;20029;-52
2024/02/01 10:47:04;;;;;;;0.68;0.68;;;18.80;45.10;;;;;;8361954;28;20104;-50
2024/02/01 10:51:14;;;;;;;0.63;0.63;;;18.80;45.10;;;;;;8362018;28;20104;-49
2024/02/01 10:55:17;;;;;;;0.70;0.70;;;18.80;45.10;;;;;;8362048;28;20032;-50
2024/02/01 10:59:19;;;;;;;0.60;0.60;;;18.70;45.00;;;;;;8361578;28;20087;-48
2024/02/01 11:03:27;;;;;;;0.82;0.70;;;18.70;45.10;;;;;;8361312;28;20025;-49
2024/02/01 11:07:28;;;;;;;0.70;0.70;;;18.70;45.10;;;;;;8361631;28;20119;-48
2024/02/01 11:11:30;;;;;;;0.50;0.50;;;18.70;45.10;;;;;;8360155;28;20060;-48
2024/02/01 11:15:31;;;;;;;1.00;0.90;;;18.70;45.10;;;;;;8361097;28;20037;-48
2024/02/01 11:19:33;;;;;;;0.60;0.60;;;18.70;45.00;;;;;;8360862;28;20540;-51
2024/02/01 11:23:40;;;;;;;0.55;0.55;;;18.80;45.10;;;;;;8361075;28;20041;-50
2024/02/01 11:27:46;;;;;;;0.50;0.50;;;18.80;45.10;;;;;;8359255;28;20040;-49
2024/02/01 11:31:48;;;;;;;0.70;0.70;;;18.80;45.00;;;;;;8360627;28;20062;-49
2024/02/01 11:35:48;;;;;;;0.60;0.60;;;18.80;45.00;;;;;;8360701;28;20037;-48
2024/02/01 11:39:50;;;;;;;0.82;0.82;;;18.80;45.00;;;;;;8360269;28;20082;-51
2024/02/01 11:43:51;;;;;;;0.60;0.60;;;18.80;45.00;;;;;;8360595;28;20032;-49
2024/02/01 11:47:53;;;;;;;0.57;0.57;;;18.80;45.10;;;;;;8359142;28;20578;-50
2024/02/01 11:52:13;;;;;;;0.80;0.80;;;18.70;45.00;;;;;;8360102;28;20017;-48
2024/02/01 11:56:14;;;;;;;0.70;0.70;;;18.70;45.00;;;;;;8359856;28;20119;-48
2024/02/01 12:00:20;;;;;;;0.63;0.63;;;18.70;45.00;;;;;;8360046;28;20029;-49
2024/02/01 12:04:21;;;;;;;0.75;0.70;;;18.70;45.00;;;;;;8360163;28;20021;-48
2024/02/01 12:08:22;;;;;;;1.17;0.68;;;18.80;45.00;;;;;;8359644;28;20615;-49
2024/02/01 12:12:23;;;;;;;1.02;0.60;;;18.80;45.00;;;;;;8359712;28;20106;-48
2024/02/01 12:16:30;;;;;;;0.63;0.63;;;18.80;45.00;;;;;;8360013;28;20117;-48
2024/02/01 12:20:33;;;;;;;0.60;0.60;;;18.80;45.00;;;;;;8359511;28;20036;-49
2024/02/01 12:24:35;;;;;;;0.70;0.70;;;18.80;45.00;;;;;;8367657;28;20033;-49
2024/02/01 12:28:36;;;;;;;0.68;0.60;;;18.80;45.00;;;;;;8370723;28;20693;-49
2024/02/01 12:32:43;;;;;;;0.80;0.80;;;18.80;45.00;;;;;;8370543;28;20063;-48
2024/02/01 12:36:45;;;;;;;0.55;0.55;;;18.70;45.00;;;;;;8353601;28;20037;-50
2024/02/01 12:40:46;;;;;;;1.00;0.70;;;18.80;45.00;;;;;;8370249;28;20513;-49
2024/02/01 12:44:48;;;;;;;0.50;0.50;;;18.70;45.00;;;;;;8370350;28;20025;-48
2024/02/01 12:48:49;;;;;;;0.55;0.50;;;18.70;45.00;;;;;;8370537;28;20040;-49
2024/02/01 12:52:50;;;;;;;0.70;0.70;;;18.80;45.00;;;;;;8370402;28;20037;-49
2024/02/01 12:56:51;;;;;;;1.27;0.70;;;18.80;45.00;;;;;;8370107;28;20064;-48
2024/02/01 13:00:52;;;;;;;0.80;0.70;;;18.80;45.00;;;;;;8368771;28;20087;-50
2024/02/01 13:04:53;;;;;;;0.50;0.50;;;18.80;45.00;;;;;;8370485;28;20072;-50
2024/02/01 13:08:54;;;;;;;0.63;0.60;;;18.80;45.00;;;;;;8370157;28;20110;-49
2024/02/01 13:12:55;;;;;;;1.20;0.90;;;18.80;45.00;;;;;;8370083;28;20071;-49
2024/02/01 13:16:59;;;;;;;0.43;0.43;;;18.80;45.00;;;;;;8369866;28;20025;-48
2024/02/01 13:21:00;;;;;;;0.52;0.50;;;18.80;45.00;;;;;;8370100;28;20060;-51
2024/02/01 13:25:01;;;;;;;0.75;0.73;;;18.80;45.00;;;;;;8370245;28;20033;-48
2024/02/01 13:29:02;;;;;;;0.70;0.70;;;18.80;45.00;;;;;;8369465;28;20041;-49
2024/02/01 13:33:04;;;;;;;0.60;0.60;;;18.80;45.00;;;;;;8369683;28;20037;-50
2024/02/01 13:37:09;;;;;;;0.57;0.57;;;18.80;45.00;;;;;;8363713;28;20040;-50
2024/02/01 13:41:10;;;;;;;0.70;0.70;;;18.80;45.00;;;;;;8364235;28;20037;-49
2024/02/01 13:45:11;;;;;;;0.60;0.60;;;18.80;45.00;;;;;;8364315;28;20060;-51
2024/02/01 13:49:14;;;;;;;0.45;0.45;;;18.80;45.00;;;;;;8364404;28;20032;-49
2024/02/01 13:53:17;;;;;;;0.60;0.50;;;18.80;45.00;;;;;;8363878;28;20433;-48
2024/02/01 13:57:17;;;;;;;0.60;0.60;;;18.80;45.00;;;;;;8364290;28;20025;-50
2024/02/01 14:01:18;;;;;;;0.50;0.50;;;18.80;45.00;;;;;;8363666;28;20041;-48
2024/02/01 14:05:24;;;;;;;0.75;0.75;;;18.80;45.00;;;;;;8363782;28;20371;-49
2024/02/01 14:09:25;;;;;;;0.73;0.63;;;18.80;45.00;;;;;;8363855;28;20055;-48
2024/02/01 14:13:26;;;;;;;0.68;0.60;;;18.80;45.00;;;;;;8363351;28;20036;-49
2024/02/01 14:17:27;;;;;;;0.60;0.60;;;18.80;45.00;;;;;;8363323;28;20043;-48
2024/02/01 14:21:28;;;;;;;0.60;0.60;;;18.70;45.00;;;;;;8362953;28;20037;-50
2024/02/01 14:25:28;;;;;;;0.55;0.50;;;18.70;45.00;;;;;;8363109;28;20086;-49
2024/02/01 14:29:29;;;;;;;0.77;0.60;;;18.80;45.00;;;;;;8362974;28;20033;-48
2024/02/01 14:33:30;;;;;;;0.88;0.70;;;18.70;45.00;;;;;;8362723;28;20388;-48
2024/02/01 14:37:31;;;;;;;0.75;0.75;;;18.70;45.00;;;;;;8361590;28;20032;-50
2024/02/01 14:41:32;;;;;;;0.65;0.60;;;18.80;45.00;;;;;;8362397;28;20033;-49
2024/02/01 14:45:32;;;;;;;0.77;0.50;;;18.70;45.00;;;;;;8362080;28;20040;-48
2024/02/01 14:49:34;;;;;;;0.43;0.43;;;18.70;45.00;;;;;;8362271;28;20037;-48
2024/02/01 14:53:35;;;;;;;0.50;0.50;;;18.70;45.00;;;;;;8361038;28;20071;-48
2024/02/01 14:57:36;;;;;;;0.77;0.77;;;18.80;45.00;;;;;;8361605;28;20041;-49
2024/02/01 15:01:36;;;;;;;0.47;0.47;;;18.70;45.00;;;;;;8361388;28;20574;-49
2024/02/01 15:05:39;;;;;;;0.60;0.60;;;18.80;45.00;;;;;;8361633;28;20075;-47
2024/02/01 15:09:39;;;;;;;0.43;0.43;;;18.80;45.10;;;;;;8361836;28;20061;-49
2024/02/01 15:13:40;;;;;;;1.08;0.70;;;18.70;45.00;;;;;;8361594;28;20039;-50
2024/02/01 15:17:42;;;;;;;0.60;0.60;;;18.70;45.00;;;;;;8360226;28;20071;-49
2024/02/01 15:21:43;;;;;;;0.70;0.70;;;18.70;45.00;;;;;;8361243;28;20065;-48
2024/02/01 15:25:44;;;;;;;0.63;0.63;;;18.70;45.10;;;;;;8361013;28;20025;-48
2024/02/01 15:29:45;;;;;;;0.63;0.60;;;18.70;45.10;;;;;;8361534;28;20033;-50
2024/02/01 15:33:50;;;;;;;0.60;0.60;;;18.60;45.20;;;;;;8360974;28;20036;-49
2024/02/01 15:37:54;;;;;;;0.50;0.50;;;18.70;45.20;;;;;;8360570;28;20033;-49
2024/02/01 15:42:00;;;;;;;0.55;0.50;;;18.60;45.20;;;;;;8360370;28;20037;-49
2024/02/01 15:46:01;;;;;;;0.60;0.60;;;18.60;45.20;;;;;;8360400;28;20033;-49
2024/02/01 15:50:03;;;;;;;0.88;0.75;;;18.60;45.20;;;;;;8359493;28;20060;-50
2024/02/01 15:54:04;;;;;;;0.50;0.50;;;18.60;45.20;;;;;;8360321;28;20029;-49
2024/02/01 15:58:04;;;;;;;0.60;0.60;;;18.60;45.20;;;;;;8359469;28;20514;-49
2024/02/01 16:02:06;;;;;;;0.70;0.60;;;18.70;45.20;;;;;;8359176;28;20486;-51
2024/02/01 16:06:08;;;;;;;1.30;0.82;;;18.70;45.10;;;;;;8360088;28;20021;-49
2024/02/01 16:10:14;;;;;;;0.60;0.60;;;18.80;45.10;;;;;;8359864;28;20098;-49
2024/02/01 16:14:21;;;;;;;0.50;0.50;;;18.80;45.10;;;;;;8359724;28;20429;-49
2024/02/01 16:18:36;;;;;;;0.60;0.50;;;18.70;45.00;;;;;;8359645;28;20065;-50
2024/02/01 16:22:55;;;;;;;0.43;0.40;;;18.70;45.00;;;;;;8359601;28;20029;-50
2024/02/01 16:26:57;;;;;;;0.50;0.50;;;18.70;45.00;;;;;;8358256;28;20029;-49
2024/02/01 16:31:16;;;;;;;0.40;0.40;;;18.70;45.00;;;;;;8359693;28;20071;-49
2024/02/01 16:35:49;;;;;;;0.50;0.50;;;18.80;45.10;;;;;;8359647;28;20044;-51
2024/02/01 16:39:57;;;;;;;0.60;0.60;;;18.70;45.00;;;;;;8359364;28;20510;-50
2024/02/01 16:44:00;;;;;;;0.50;0.50;;;18.70;45.00;;;;;;8359332;28;20546;-51
2024/02/01 16:48:01;;;;;;;0.50;0.50;;;18.70;45.00;;;;;;8359137;28;20621;-49
2024/02/01 16:52:01;;;;;;;0.50;0.50;;;18.70;45.00;;;;;;8358993;28;20430;-49
2024/02/01 16:56:05;;;;;;;0.57;0.47;;;18.70;45.00;;;;;;8359104;28;20063;-50
2024/02/01 17:00:10;;;;;;;0.50;0.50;;;18.70;45.00;;;;;;8359030;28;20120;-50
2024/02/01 17:04:23;;;;;;;0.47;0.47;;;18.70;45.00;;;;;;8358966;28;20395;-51
2024/02/01 17:08:49;;;;;;;0.50;0.50;;;18.80;45.10;;;;;;8358559;28;20061;-49
2024/02/01 17:12:50;;;;;;;0.60;0.50;;;18.70;45.00;;;;;;8364432;28;20049;-50
2024/02/01 17:16:59;;;;;;;0.50;0.50;;;18.80;45.10;;;;;;8364803;28;20033;-48
2024/02/01 17:21:04;;;;;;;0.73;0.60;;;18.70;45.00;;;;;;8364882;28;20033;-48
2024/02/01 17:25:12;;;;;;;0.50;0.50;;;18.80;45.00;;;;;;8364864;28;20025;-52
2024/02/01 17:29:21;;;;;;;0.57;0.55;;;18.70;45.00;;;;;;8364576;28;20087;-49
2024/02/01 17:33:52;;;;;;;0.40;0.40;;;18.80;45.00;;;;;;8364327;28;20494;-50
2024/02/01 17:37:56;;;;;;;0.40;0.40;;;18.80;45.00;;;;;;8364226;28;20395;-49
2024/02/01 17:41:57;;;;;;;0.50;0.50;;;18.80;45.00;;;;;;8362849;28;20053;-51
2024/02/01 17:45:58;;;;;;;0.50;0.50;;;18.70;45.00;;;;;;8364265;28;20025;-47
2024/02/01 17:50:00;;;;;;;0.40;0.40;;;18.70;45.00;;;;;;8364044;28;20044;-49
2024/02/01 17:54:03;;;;;;;;;;;18.70;45.00;;;;;;8363162;28;20303;-51
2024/02/01 17:58:32;;;;;;;0.40;0.40;;;18.70;45.00;;;;;;8363622;28;19912;-50
2024/02/01 18:02:33;;;;;;;0.50;0.50;;;18.80;45.00;;;;;;8363515;28;20037;-52
2024/02/01 18:06:43;;;;;;;0.47;0.47;;;18.70;45.00;;;;;;8363743;28;20422;-53
2024/02/01 18:10:49;;;;;;;0.50;0.50;;;18.70;45.00;;;;;;8363304;28;20052;-50
2024/02/01 18:14:52;;;;;;;0.50;0.50;;;18.70;45.00;;;;;;8363900;28;20068;-51
2024/02/01 18:19:05;;;;;;;0.73;0.52;;;18.80;45.00;;;;;;8363223;28;20029;-52
2024/02/01 18:23:07;;;;;;;0.50;0.40;;;18.80;45.60;;;;;;8362547;28;20059;-52
2024/02/01 18:27:17;;;;;;;0.43;0.43;;;18.70;45.00;;;;;;8362697;28;20033;-51
2024/02/01 18:31:19;;;;;;;0.50;0.40;;;18.70;45.00;;;;;;8362852;28;20111;-52
2024/02/01 18:35:36;;;;;;;0.40;0.40;;;18.70;45.00;;;;;;8362673;28;20394;-51
2024/02/01 18:39:37;;;;;;;0.50;0.50;;;18.70;45.00;;;;;;8362666;28;20040;-51
2024/02/01 18:43:38;;;;;;;0.50;0.50;;;18.70;45.00;;;;;;8361203;28;20021;-53
2024/02/01 18:47:40;;;;;;;0.65;0.63;;;18.70;45.00;;;;;;8344417;28;20033;-53
2024/02/01 18:52:01;;;;;;;0.60;0.50;;;18.70;45.00;;;;;;8362278;28;20396;-52
2024/02/01 18:56:03;;;;;;;0.43;0.43;;;18.80;45.00;;;;;;8362002;28;20029;-52
2024/02/01 19:00:09;;;;;;;0.38;0.38;;;18.70;45.00;;;;;;8360693;28;20029;-52
2024/02/01 19:04:20;;;;;;;0.50;0.50;;;18.80;45.00;;;;;;8361887;28;20033;-49
2024/02/01 19:08:27;;;;;;;0.60;0.60;;;18.70;45.00;;;;;;8361474;28;20057;-51
2024/02/01 19:12:44;;;;;;;0.47;0.47;;;18.70;45.00;;;;;;8361760;28;20047;-52
2024/02/01 19:16:45;;;;;;;0.50;0.50;;;18.80;45.00;;;;;;8361377;28;20036;-50
2024/02/01 19:20:46;;;;;;;0.60;0.60;;;18.80;45.00;;;;;;8360899;28;20036;-52
2024/02/01 19:24:49;;;;;;;;;;;18.80;45.00;;;;;;8361899;28;20033;-52
2024/02/01 19:28:56;;;;;;;0.40;0.40;;;18.80;45.00;;;;;;8360919;28;20350;-52
2024/02/01 19:33:00;;;;;;;0.63;0.60;;;18.70;45.50;;;;;;8360622;28;20059;-50
2024/02/01 19:37:00;;;;;;;0.32;0.32;;;18.70;45.00;;;;;;8360953;28;20033;-51
2024/02/01 19:41:01;;;;;;;0.40;0.40;;;18.70;45.00;;;;;;8360731;28;20033;-53
2024/02/01 19:45:02;;;;;;;0.45;0.45;;;18.70;45.00;;;;;;8360677;28;20036;-51
2024/02/01 19:49:03;;;;;;;0.47;0.40;;;18.80;45.00;;;;;;8360486;28;20029;-51
2024/02/01 19:53:04;;;;;;;0.47;0.47;;;18.80;45.00;;;;;;8360365;28;20025;-52
2024/02/01 19:57:05;;;;;;;0.40;0.40;;;18.70;45.00;;;;;;8360195;28;20036;-50
2024/02/01 20:01:05;;;;;;;0.50;0.50;;;18.80;45.00;;;;;;8358864;28;20037;-50
2024/02/01 20:05:06;;;;;;;0.50;0.50;;;18.80;45.00;;;;;;8360178;28;20025;-51
2024/02/01 20:09:08;;;;;;;0.43;0.43;;;18.80;45.00;;;;;;8360361;28;20089;-51
2024/02/01 20:13:09;;;;;;;0.30;0.30;;;18.70;45.00;;;;;;8358796;28;20062;-49
2024/02/01 20:17:10;;;;;;;0.50;0.50;;;18.80;45.00;;;;;;8359827;28;20029;-49
2024/02/01 20:21:11;;;;;;;0.55;0.50;;;18.80;45.00;;;;;;8359653;28;20043;-49
2024/02/01 20:25:24;;;;;;;0.40;0.40;;;18.80;45.00;;;;;;8358597;28;20086;-50
2024/02/01 20:29:25;;;;;;;0.60;0.60;;;18.80;45.00;;;;;;8359541;28;20029;-49
2024/02/01 20:33:25;;;;;;;0.40;0.40;;;18.80;45.00;;;;;;8359888;28;20117;-50
2024/02/01 20:37:26;;;;;;;0.52;0.52;;;18.70;45.00;;;;;;8360055;28;20041;-49
2024/02/01 20:41:32;;;;;;;0.43;0.43;;;18.70;45.00;;;;;;8359065;28;20044;-49
2024/02/01 20:45:37;;;;;;;0.40;0.40;;;18.70;45.00;;;;;;8363740;28;20450;-49
2024/02/01 20:49:42;;;;;;;0.40;0.40;;;18.70;45.10;;;;;;8366093;28;20021;-48
2024/02/01 20:53:52;;;;;;;0.47;0.47;;;18.70;45.10;;;;;;8364726;28;20033;-51
2024/02/01 20:58:09;;;;;;;0.30;0.30;;;18.70;45.10;;;;;;8365527;28;20045;-51
2024/02/01 21:02:30;;;;;;;0.50;0.50;;;18.70;45.20;;;;;;8365683;28;20032;-48
2024/02/01 21:06:31;;;;;;;;;;;18.60;45.10;;;;;;8365964;28;20104;-50
2024/02/01 21:10:43;;;;;;;0.57;0.50;;;18.70;45.10;;;;;;8365083;28;19920;-48
2024/02/01 21:14:46;;;;;;;0.43;0.43;;;18.70;45.10;;;;;;8365481;28;20048;-51
2024/02/01 21:18:47;;;;;;;0.50;0.50;;;18.70;45.00;;;;;;8365050;28;20037;-49
2024/02/01 21:22:48;;;;;;;0.40;0.40;;;18.70;45.50;;;;;;8364850;28;20025;-52
2024/02/01 21:26:48;;;;;;;0.30;0.30;;;18.70;45.00;;;;;;8364155;28;20031;-51
2024/02/01 21:30:49;;;;;;;0.40;0.40;;;18.70;45.00;;;;;;8364584;28;20446;-51
2024/02/01 21:34:53;;;;;;;0.30;0.30;;;18.70;45.00;;;;;;8364606;28;20134;-51
2024/02/01 21:38:54;;;;;;;0.35;0.35;;;18.80;45.00;;;;;;8364487;28;20045;-51
2024/02/01 21:42:57;;;;;;;0.40;0.40;;;18.80;45.00;;;;;;8364054;28;20039;-51
2024/02/01 21:46:58;;;;;;;0.40;0.40;;;18.70;45.00;;;;;;8364220;28;20024;-51
2024/02/01 21:50:59;;;;;;;0.50;0.50;;;18.80;45.00;;;;;;8364163;28;20037;-53
2024/02/01 21:55:00;;;;;;;0.70;0.50;;;18.70;45.00;;;;;;8363052;28;20082;-52
2024/02/01 21:59:04;;;;;;;0.40;0.40;;;18.80;45.00;;;;;;8363676;28;20102;-52
2024/02/01 22:03:05;;;;;;;0.35;0.35;;;18.80;45.00;;;;;;8362505;28;20021;-50
2024/02/01 22:07:05;;;;;;;0.43;0.43;;;18.80;45.00;;;;;;8363808;28;20029;-51